sensor_id;sensor_type;location;lat;lon;timestamp;temperature;humidity
53286;DHT22;39171;45.550;12.074;2022-09-29T00:18:11;19.20;80.10
53286;DHT22;39171;45.550;12.074;2022-09-29T00:40:18;19.10;80.20
53286;DHT22;39171;45.550;12.074;2022-09-29T00:52:43;19.10;80.50
53286;DHT22;39171;45.550;12.074;2022-09-29T01:04:57;19.10;80.60
53286;DHT22;39171;45.550;12.074;2022-09-29T01:11:01;19.10;80.40
53286;DHT22;39171;45.550;12.074;2022-09-29T01:17:04;19.10;80.50
53286;DHT22;39171;45.550;12.074;2022-09-29T01:42:22;19.10;80.50
53286;DHT22;39171;45.550;12.074;2022-09-29T01:48:29;19.10;80.50
53286;DHT22;39171;45.550;12.074;2022-09-29T01:54:54;19.10;80.40
53286;DHT22;39171;45.550;12.074;2022-09-29T02:01:02;19.10;80.50
53286;DHT22;39171;45.550;12.074;2022-09-29T02:07:25;19.10;80.50
53286;DHT22;39171;45.550;12.074;2022-09-29T02:20:00;19.10;80.40
53286;DHT22;39171;45.550;12.074;2022-09-29T02:26:03;19.10;80.60
53286;DHT22;39171;45.550;12.074;2022-09-29T02:32:06;19.10;80.70
53286;DHT22;39171;45.550;12.074;2022-09-29T02:38:20;19.10;80.80
53286;DHT22;39171;45.550;12.074;2022-09-29T02:44:45;19.10;80.80
53286;DHT22;39171;45.550;12.074;2022-09-29T02:50:51;19.10;80.80
53286;DHT22;39171;45.550;12.074;2022-09-29T02:57:16;19.10;80.60
53286;DHT22;39171;45.550;12.074;2022-09-29T03:03:17;19.00;80.60
53286;DHT22;39171;45.550;12.074;2022-09-29T03:09:19;19.00;80.70
53286;DHT22;39171;45.550;12.074;2022-09-29T03:15:21;19.00;80.60
53286;DHT22;39171;45.550;12.074;2022-09-29T03:21:22;19.00;80.50
53286;DHT22;39171;45.550;12.074;2022-09-29T03:27:24;19.00;80.70
53286;DHT22;39171;45.550;12.074;2022-09-29T03:33:25;19.00;80.70
53286;DHT22;39171;45.550;12.074;2022-09-29T03:39:27;19.00;80.80
53286;DHT22;39171;45.550;12.074;2022-09-29T03:45:29;19.00;80.70
53286;DHT22;39171;45.550;12.074;2022-09-29T03:51:30;19.00;80.60
53286;DHT22;39171;45.550;12.074;2022-09-29T03:57:32;19.00;80.50
53286;DHT22;39171;45.550;12.074;2022-09-29T04:03:33;19.00;80.70
53286;DHT22;39171;45.550;12.074;2022-09-29T04:09:34;19.00;81.10
53286;DHT22;39171;45.550;12.074;2022-09-29T04:15:36;19.00;81.30
53286;DHT22;39171;45.550;12.074;2022-09-29T04:21:38;19.00;81.20
53286;DHT22;39171;45.550;12.074;2022-09-29T04:27:42;19.00;81.40
53286;DHT22;39171;45.550;12.074;2022-09-29T04:33:43;19.00;81.50
53286;DHT22;39171;45.550;12.074;2022-09-29T04:39:45;19.00;81.50
53286;DHT22;39171;45.550;12.074;2022-09-29T04:45:46;19.00;81.70
53286;DHT22;39171;45.550;12.074;2022-09-29T04:51:48;19.00;81.50
53286;DHT22;39171;45.550;12.074;2022-09-29T04:57:49;19.00;81.30
53286;DHT22;39171;45.550;12.074;2022-09-29T05:03:51;19.00;81.20
53286;DHT22;39171;45.550;12.074;2022-09-29T05:09:53;19.00;81.10
53286;DHT22;39171;45.550;12.074;2022-09-29T05:15:55;19.00;81.10
53286;DHT22;39171;45.550;12.074;2022-09-29T05:21:58;19.00;81.50
53286;DHT22;39171;45.550;12.074;2022-09-29T05:27:59;19.00;81.40
53286;DHT22;39171;45.550;12.074;2022-09-29T05:34:01;19.00;81.30
53286;DHT22;39171;45.550;12.074;2022-09-29T05:40:03;19.00;81.40
53286;DHT22;39171;45.550;12.074;2022-09-29T05:46:06;19.00;81.60
53286;DHT22;39171;45.550;12.074;2022-09-29T05:52:09;18.90;81.50
53286;DHT22;39171;45.550;12.074;2022-09-29T05:58:11;19.00;81.50
53286;DHT22;39171;45.550;12.074;2022-09-29T06:04:13;18.90;81.50
53286;DHT22;39171;45.550;12.074;2022-09-29T06:10:17;18.90;81.40
53286;DHT22;39171;45.550;12.074;2022-09-29T06:16:24;18.90;81.50
53286;DHT22;39171;45.550;12.074;2022-09-29T06:22:26;18.90;81.50
53286;DHT22;39171;45.550;12.074;2022-09-29T06:28:28;18.90;81.50
53286;DHT22;39171;45.550;12.074;2022-09-29T06:34:29;18.90;81.70
53286;DHT22;39171;45.550;12.074;2022-09-29T06:40:30;18.90;81.40
53286;DHT22;39171;45.550;12.074;2022-09-29T06:46:32;18.90;81.50
53286;DHT22;39171;45.550;12.074;2022-09-29T06:52:34;18.90;81.10
53286;DHT22;39171;45.550;12.074;2022-09-29T06:58:39;18.90;81.00
53286;DHT22;39171;45.550;12.074;2022-09-29T07:04:41;19.00;81.00
53286;DHT22;39171;45.550;12.074;2022-09-29T07:10:42;19.00;80.80
53286;DHT22;39171;45.550;12.074;2022-09-29T07:16:44;19.00;80.70
53286;DHT22;39171;45.550;12.074;2022-09-29T07:22:48;19.00;80.60
53286;DHT22;39171;45.550;12.074;2022-09-29T07:28:50;19.00;80.40
53286;DHT22;39171;45.550;12.074;2022-09-29T07:34:51;19.00;80.30
53286;DHT22;39171;45.550;12.074;2022-09-29T07:40:53;19.10;80.20
53286;DHT22;39171;45.550;12.074;2022-09-29T07:46:55;19.00;80.10
53286;DHT22;39171;45.550;12.074;2022-09-29T07:52:59;19.10;79.90
53286;DHT22;39171;45.550;12.074;2022-09-29T07:59:01;19.10;79.80
53286;DHT22;39171;45.550;12.074;2022-09-29T08:05:05;19.10;79.70
53286;DHT22;39171;45.550;12.074;2022-09-29T08:11:10;19.10;79.60
53286;DHT22;39171;45.550;12.074;2022-09-29T08:17:12;19.20;79.60
53286;DHT22;39171;45.550;12.074;2022-09-29T08:23:14;19.20;79.50
53286;DHT22;39171;45.550;12.074;2022-09-29T08:29:25;19.20;79.40
53286;DHT22;39171;45.550;12.074;2022-09-29T08:35:29;19.20;79.20
53286;DHT22;39171;45.550;12.074;2022-09-29T08:54:30;19.20;78.80
53286;DHT22;39171;45.550;12.074;2022-09-29T09:26:02;19.20;78.50
53286;DHT22;39171;45.550;12.074;2022-09-29T09:32:15;19.30;79.00
53286;DHT22;39171;45.550;12.074;2022-09-29T09:38:27;19.20;78.70
53286;DHT22;39171;45.550;12.074;2022-09-29T09:44:37;19.20;78.60
53286;DHT22;39171;45.550;12.074;2022-09-29T09:50:41;19.30;79.50
53286;DHT22;39171;45.550;12.074;2022-09-29T10:02:54;19.30;79.00
53286;DHT22;39171;45.550;12.074;2022-09-29T10:08:57;19.30;79.60
53286;DHT22;39171;45.550;12.074;2022-09-29T10:15:14;19.30;80.10
53286;DHT22;39171;45.550;12.074;2022-09-29T10:27:29;19.30;79.70
53286;DHT22;39171;45.550;12.074;2022-09-29T10:33:31;19.30;79.30
53286;DHT22;39171;45.550;12.074;2022-09-29T10:39:43;19.30;79.10
53286;DHT22;39171;45.550;12.074;2022-09-29T10:45:47;19.30;79.40
53286;DHT22;39171;45.550;12.074;2022-09-29T10:58:15;19.30;78.90
53286;DHT22;39171;45.550;12.074;2022-09-29T11:16:36;19.40;78.60
53286;DHT22;39171;45.550;12.074;2022-09-29T11:23:05;19.40;78.30
53286;DHT22;39171;45.550;12.074;2022-09-29T11:29:24;19.40;78.10
53286;DHT22;39171;45.550;12.074;2022-09-29T11:54:42;19.50;77.70
53286;DHT22;39171;45.550;12.074;2022-09-29T12:07:20;19.50;77.70
53286;DHT22;39171;45.550;12.074;2022-09-29T12:19:36;19.60;77.20
53286;DHT22;39171;45.550;12.074;2022-09-29T12:26:02;19.60;77.10
53286;DHT22;39171;45.550;12.074;2022-09-29T12:32:15;19.70;76.90
53286;DHT22;39171;45.550;12.074;2022-09-29T12:38:27;19.70;76.80
53286;DHT22;39171;45.550;12.074;2022-09-29T12:44:36;19.70;76.70
53286;DHT22;39171;45.550;12.074;2022-09-29T12:50:50;19.70;76.50
53286;DHT22;39171;45.550;12.074;2022-09-29T12:57:08;19.80;76.30
53286;DHT22;39171;45.550;12.074;2022-09-29T13:03:47;19.80;76.10
53286;DHT22;39171;45.550;12.074;2022-09-29T13:16:44;19.80;75.80
53286;DHT22;39171;45.550;12.074;2022-09-29T13:29:22;19.90;75.60
53286;DHT22;39171;45.550;12.074;2022-09-29T13:35:25;19.90;75.40
53286;DHT22;39171;45.550;12.074;2022-09-29T13:47:33;20.00;75.20
53286;DHT22;39171;45.550;12.074;2022-09-29T13:53:35;20.00;75.10
53286;DHT22;39171;45.550;12.074;2022-09-29T14:00:10;20.00;75.10
53286;DHT22;39171;45.550;12.074;2022-09-29T14:06:23;19.90;74.90
53286;DHT22;39171;45.550;12.074;2022-09-29T14:12:27;20.00;74.80
53286;DHT22;39171;45.550;12.074;2022-09-29T14:18:47;20.00;74.70
53286;DHT22;39171;45.550;12.074;2022-09-29T14:24:53;20.10;74.30
53286;DHT22;39171;45.550;12.074;2022-09-29T14:30:56;20.10;74.10
53286;DHT22;39171;45.550;12.074;2022-09-29T14:37:02;20.20;74.00
53286;DHT22;39171;45.550;12.074;2022-09-29T15:02:26;20.00;74.10
53286;DHT22;39171;45.550;12.074;2022-09-29T15:08:30;19.90;74.00
53286;DHT22;39171;45.550;12.074;2022-09-29T15:14:39;19.90;74.10
53286;DHT22;39171;45.550;12.074;2022-09-29T15:27:14;19.80;74.50
53286;DHT22;39171;45.550;12.074;2022-09-29T15:33:36;19.80;74.70
53286;DHT22;39171;45.550;12.074;2022-09-29T15:39:44;19.80;74.80
53286;DHT22;39171;45.550;12.074;2022-09-29T15:46:01;19.80;74.80
53286;DHT22;39171;45.550;12.074;2022-09-29T15:52:13;19.70;74.90
53286;DHT22;39171;45.550;12.074;2022-09-29T15:58:39;19.70;74.90
53286;DHT22;39171;45.550;12.074;2022-09-29T16:04:45;19.70;74.90
53286;DHT22;39171;45.550;12.074;2022-09-29T16:10:53;19.70;74.80
53286;DHT22;39171;45.550;12.074;2022-09-29T16:16:56;19.70;76.10
53286;DHT22;39171;45.550;12.074;2022-09-29T16:29:37;19.70;76.40
53286;DHT22;39171;45.550;12.074;2022-09-29T16:35:40;19.70;76.40
53286;DHT22;39171;45.550;12.074;2022-09-29T16:41:49;19.70;76.50
53286;DHT22;39171;45.550;12.074;2022-09-29T16:47:52;19.70;76.50
53286;DHT22;39171;45.550;12.074;2022-09-29T16:53:57;19.70;77.00
53286;DHT22;39171;45.550;12.074;2022-09-29T17:00:01;19.70;77.40
53286;DHT22;39171;45.550;12.074;2022-09-29T17:06:07;19.70;77.20
53286;DHT22;39171;45.550;12.074;2022-09-29T17:12:13;19.70;77.60
53286;DHT22;39171;45.550;12.074;2022-09-29T17:18:15;19.60;77.80
53286;DHT22;39171;45.550;12.074;2022-09-29T17:24:17;19.60;78.20
53286;DHT22;39171;45.550;12.074;2022-09-29T17:30:23;19.60;77.90
53286;DHT22;39171;45.550;12.074;2022-09-29T17:36:25;19.60;77.90
53286;DHT22;39171;45.550;12.074;2022-09-29T17:42:27;19.60;78.00
53286;DHT22;39171;45.550;12.074;2022-09-29T17:48:29;19.60;78.00
53286;DHT22;39171;45.550;12.074;2022-09-29T17:54:31;19.60;78.20
53286;DHT22;39171;45.550;12.074;2022-09-29T18:00:37;19.60;78.10
53286;DHT22;39171;45.550;12.074;2022-09-29T18:06:38;19.60;78.10
53286;DHT22;39171;45.550;12.074;2022-09-29T18:12:42;19.60;78.00
53286;DHT22;39171;45.550;12.074;2022-09-29T18:18:43;19.60;79.50
53286;DHT22;39171;45.550;12.074;2022-09-29T18:24:45;19.60;79.30
53286;DHT22;39171;45.550;12.074;2022-09-29T18:30:49;19.50;79.10
53286;DHT22;39171;45.550;12.074;2022-09-29T18:36:52;19.50;79.30
53286;DHT22;39171;45.550;12.074;2022-09-29T18:42:54;19.50;79.00
53286;DHT22;39171;45.550;12.074;2022-09-29T18:48:59;19.50;79.10
53286;DHT22;39171;45.550;12.074;2022-09-29T18:55:03;19.60;79.40
53286;DHT22;39171;45.550;12.074;2022-09-29T19:01:04;19.50;79.30
53286;DHT22;39171;45.550;12.074;2022-09-29T19:07:06;19.50;79.30
53286;DHT22;39171;45.550;12.074;2022-09-29T19:13:15;19.50;79.40
53286;DHT22;39171;45.550;12.074;2022-09-29T19:19:16;19.60;79.40
53286;DHT22;39171;45.550;12.074;2022-09-29T19:25:24;19.50;79.40
53286;DHT22;39171;45.550;12.074;2022-09-29T19:31:25;19.50;79.30
53286;DHT22;39171;45.550;12.074;2022-09-29T19:37:27;19.50;79.30
53286;DHT22;39171;45.550;12.074;2022-09-29T19:43:28;19.50;79.20
53286;DHT22;39171;45.550;12.074;2022-09-29T19:49:30;19.50;79.30
53286;DHT22;39171;45.550;12.074;2022-09-29T19:55:31;19.50;79.40
53286;DHT22;39171;45.550;12.074;2022-09-29T20:01:33;19.50;79.40
53286;DHT22;39171;45.550;12.074;2022-09-29T20:07:38;19.50;79.40
53286;DHT22;39171;45.550;12.074;2022-09-29T20:13:40;19.50;79.50
53286;DHT22;39171;45.550;12.074;2022-09-29T20:19:41;19.50;79.40
53286;DHT22;39171;45.550;12.074;2022-09-29T20:25:44;19.50;79.50
53286;DHT22;39171;45.550;12.074;2022-09-29T20:31:46;19.50;79.50
53286;DHT22;39171;45.550;12.074;2022-09-29T20:37:48;19.50;79.60
53286;DHT22;39171;45.550;12.074;2022-09-29T20:43:51;19.50;79.60
53286;DHT22;39171;45.550;12.074;2022-09-29T20:49:55;19.40;79.70
53286;DHT22;39171;45.550;12.074;2022-09-29T21:02:07;19.40;79.70
53286;DHT22;39171;45.550;12.074;2022-09-29T21:08:08;19.40;79.80
53286;DHT22;39171;45.550;12.074;2022-09-29T21:14:13;19.40;79.80
53286;DHT22;39171;45.550;12.074;2022-09-29T21:20:16;19.40;79.90
53286;DHT22;39171;45.550;12.074;2022-09-29T21:26:20;19.40;79.80
53286;DHT22;39171;45.550;12.074;2022-09-29T21:32:24;19.40;79.80
53286;DHT22;39171;45.550;12.074;2022-09-29T21:38:26;19.40;79.90
53286;DHT22;39171;45.550;12.074;2022-09-29T21:44:30;19.40;79.90
53286;DHT22;39171;45.550;12.074;2022-09-29T21:50:34;19.40;80.00
53286;DHT22;39171;45.550;12.074;2022-09-29T21:56:38;19.40;80.10
53286;DHT22;39171;45.550;12.074;2022-09-29T22:02:40;19.40;80.00
53286;DHT22;39171;45.550;12.074;2022-09-29T22:08:42;19.40;80.00
53286;DHT22;39171;45.550;12.074;2022-09-29T22:14:43;19.40;80.00
53286;DHT22;39171;45.550;12.074;2022-09-29T22:20:45;19.30;79.90
53286;DHT22;39171;45.550;12.074;2022-09-29T22:26:47;19.30;80.00
53286;DHT22;39171;45.550;12.074;2022-09-29T22:32:49;19.30;80.00
53286;DHT22;39171;45.550;12.074;2022-09-29T22:38:50;19.30;80.00
53286;DHT22;39171;45.550;12.074;2022-09-29T22:44:52;19.30;80.10
53286;DHT22;39171;45.550;12.074;2022-09-29T22:50:53;19.30;80.10
53286;DHT22;39171;45.550;12.074;2022-09-29T22:56:55;19.30;80.20
53286;DHT22;39171;45.550;12.074;2022-09-29T23:02:56;19.30;80.40
53286;DHT22;39171;45.550;12.074;2022-09-29T23:08:58;19.30;80.40
53286;DHT22;39171;45.550;12.074;2022-09-29T23:14:59;19.30;80.40
53286;DHT22;39171;45.550;12.074;2022-09-29T23:21:04;19.30;80.30
53286;DHT22;39171;45.550;12.074;2022-09-29T23:27:07;19.30;80.40
53286;DHT22;39171;45.550;12.074;2022-09-29T23:33:08;19.30;80.30
53286;DHT22;39171;45.550;12.074;2022-09-29T23:39:10;19.30;80.40
53286;DHT22;39171;45.550;12.074;2022-09-29T23:45:13;19.30;80.40
53286;DHT22;39171;45.550;12.074;2022-09-29T23:51:15;19.30;80.40
53286;DHT22;39171;45.550;12.074;2022-09-29T23:57:18;19.20;80.60
